Timeline UpdatesTrip UpdatesNews PostsPvt PostsTravel TipsAdmin PostsConv PostsFollowed PostsChat RequestsBlog PostsPNR Posts

Disclaimer
Search
 
 
Fri Aug 1, 2014 11:16:37 ISTHomeTrainsΣChainsAtlasPNRForumGalleryNewsFAQTripsMembersLoginFeedback
No Recent News for this Train
Other Trains in the News **new
Latest...
.
Sat Jul 30, 2011 (04:46AM)
⇐ Return Journey: Train# 57562

57561/Kacheguda Manmad Passenger (UnReserved)

Sep 11 2013 (10:15PM)
Change Departure Station:
Change Arrival Station:
Post a Train Travel TipPost a Train Travel Tip **new
Post a Comment/Question/Picture/VideoPost a Comment/Question/Picture/Video
Pantry/Catering
✕ NO Pantry Car
✓ Catering Avbl
RSA - Rake Sharing
Rake/Coach Composition
LOCO-SLR-GEN-GEN-GEN-GEN-GEN-GEN-GEN-GEN-GEN-GEN-GEN-GEN-SLR.
Loco
MLY WDM 2/3A or WDG 3A.
News    PNR    Forum    Time-Table    Availability    Fare Chart    Map    Arr/Dep History    Trips    Gallery    ΣChains    X/O    Timeline    
Travel Time: 7h 5m    16 halts    Distance: 194 km    Avg Speed: 27 km/hr
Type: Passenger
Zone: SCR/South Central
Departs @ 16:00 (Avg 1h 51m late)
Platform# ???
SMTWTFS
Kodi/KODI 
Arrives @ 23:05 (Avg 1h 16m late)
Platform# 6
SMTWTFS
Manmad Junction/MMR 

16 halts. 17 intermediate Stations between Kodi and Manmad Junction

Show ALL intermediate Stations  Show Old Time-Table

#CodeStation NameX/OArrivesAvgDepartsAvgHaltPFDay#KmSpeedElevZoneAddress
1KCGHyderabad Kacheguda (5)  -04:50+511-430.158494mSCRHyderabad - 500027, Telangana
2VARVidya Nagar (2)  04:52-04:53-1m--1-428.244505mSCRHyderabad, Telangana
3JOOJamai Osmania (2)  04:55-04:56-1m--1-426.837515mSCRHyderabad, Telangana
4ATCArts College (2)X  04:57-04:58-1m--1-426.233521mSCRHyderabad, Telangana
5STPDSitafalmandi (4)  05:00+1005:01+101m21-425.180533mSCRSecunderabad, Telangana
6LGDHLalaguda Gate (2)  05:03+005:04+01m--1-422.44543mSCRSecunderabad, Telangana
7MJFMalkajgiri (3)X  05:18+1405:19+161m31-421.427535mSCRSecunderabad, Telangana
8DYEDayanand Nagar (2)  05:21-05:22-1m--1-420.535537mSCRSecunderabad, Telangana
9SFXSafilguda (2)  05:23+005:24+01m--1-420.034544mSCRSecunderabad, Telangana
10RKORamakistapuram Gate (2)  05:27+005:28+01m--1-418.233561mSCRSecunderabad, Telangana
11AMQAmmuguda Halt (2)  05:30-05:31-1m--1-417.183569mSCRSecunderabad, Telangana
12CVBCavalry Barracks (3)  05:32+2005:33+201m31-415.824575mSCRSecunderabad, Telangana
13ALWAlwal (2)  05:36+005:37+01m--1-414.549580mSCRSecunderabad, Telangana
14BOZBolarum Bazar (2)  05:39-05:40-1m--1-412.912584mSCRSecunderabad, Telangana
15BMOBolarum (3)X  05:48+1705:49+191m11-411.329597mSCRSecunderabad, Telangana
16GDPLGundla Pochampally (1)X  06:00+1606:01+181m--1-405.977601mSCRRangareddy Dist., Telangana
17GWVGowdavalli (1)  06:05-06:06-1m11-400.823601mSCRRangareddy Dist., Telangana
18MEDMedchal (3)  06:15+1706:16+211m21-397.479602mSCRRangareddy Dist., Telangana
19DBVDabilpur (1)  06:19-06:20-1m11-393.480611mSCRRangareddy Dist., Telangana
20KUCHKuchavaram Halt (1)X  06:25+006:26+01m11-386.820595mSCRRangareddy, Telangana
21MOBManoharabad (2)  06:34+2006:35+251m--1-384.1-593mSCRMedak Dist., Telangana
22PAPMPalata Potaram (1)  06:39-06:40-1m11-371.626522mSCRMedak Dist., Telangana
23BMPLBrahmanapalli (1)  06:44-06:45-1m11-369.921528mSCRMedak Dist., Telangana
24MEMasaipet (2)X  06:53+2506:54+281m--1-367.046520mSCRMedak Dist., Telangana
25SHANSrinivasa NagarX  06:58-06:59-1m--1-363.932522mSCRMedak Dist., Telangana
26WDRWadiaram (2)  07:08+2807:09+301m--1-359.266547mSCRMedak Dist., Telangana
27MZLMirzapalli (1)  07:15+3107:16+341m11-352.629530mSCRMedak Dist., Telangana
28AKEAkanapetX  07:38+2507:39+281m--1-341.837566mSCRNizamabad Dist, Telangana
29BKUBhiknur  07:49+2807:50+311m--1-335.761575mSCRNizamabad Dist., Telangana
30THPRTippapur (1)  07:54-07:55-1m11-331.655549mSCRNizamabad Dist., Telangana
31TMDTalmadla  08:01+3308:02+331m--1-326.123559mSCRNizamabad Dist., Telangana
32KMCKamareddi (3)  08:28+1908:30+202m11-316.175528mSCRNizamabad Dist., Telangana
33UPWUppalavai  08:39+2308:40+241m--1-304.857529mSCRNizamabad Dist., Telangana
34SCPSirnapalli  08:51+2308:52+231m--1-294.453456mSCRNizamabad Dist., Telangana
35IDLIndalvai (1)X  09:01+2409:02+281m11-286.547439mSCRNizamabad Dist., Telangana
36DHPDichpalliX  09:14+2709:15+271m--1-277.139424mSCRNizamabad Dist., Telangana
37NZBNizamabad (3)  09:35+2309:40+335m31-264.247384mSCRNizamabad, Telangana
38JKMJankampet Junction (1)  09:48+3809:49+381m11-258.063391mSCRJankampet Junction nizamabad dist., Telangana
39NVTNavipet (2)  09:58+4109:59+421m--1-248.670374mSCRNizamabad Dist., Telangana
40FKBFakrabad (1)  10:05-10:06-1m11-241.618348mSCRNizamabad Dist., Telangana
41BSXBasar (2)X  10:28+3010:30+312m21-234.959358mSCRDist Adilabad, Telangana
42DABDharmabad (2)  10:40+3410:41+361m--1-225.078354mSCRDegaon, Maharashtra
43SQESamrla  10:46-10:47-1m--1-218.653360mSCRDharmabad, Maharashtra
44KEKKarkheli  10:55+3510:56+361m--1-211.456358mSCRBiloli, Maharashtra
45BLSABolsa  11:04+3411:05+361m--1-204.056361mSCRDharmabad, Maharashtra
46UMRIUmri (1)  11:14+3611:15+361m11-195.694381mSCRHuzur Sahib Nanded, Maharashtra
47SLGHShelgaon Halt  11:20-11:21-1m--1-187.833378mSCRMudkhed, Maharashtra
48SVNSivungaon  11:29+3411:30+341m--1-183.317395mSCRHuzur Sahib Nanded, Maharashtra
49MUEMudkhed Junction (4)  11:55+4211:57+442m--1-176.161378mSCRMudkhed, Maharashtra
50MGCMugat  12:06+5212:07+551m--1-166.939360mSCRHuzur Sahib Nanded, Maharashtra
51PARDPathradX  12:12-12:13-1m--1-163.743363mSCRHuzur Sahib Nanded, Maharashtra
52MTDIMaltekdi  12:23+5612:24+591m--1-156.528362mSCRNanded, Maharashtra
53NEDHazur Sahib Nanded (4)X  12:30+4312:35+475m--1-153.843366mSCRNanded, Maharashtra
54WNGWanegaon  12:44-12:45-1m--1-147.331371mSCRChudawa, Maharashtra
55LBGLimbgaon (2)X  12:54+1:0512:55+1:071m--1-142.664390mSCRHuzur Sahib Nanded, Maharashtra
56CRUChudawa (1)X  13:04+1:0913:05+1:141m11-133.040392mSCRHingoli, Maharashtra
57PAUPurna Junction (4)X  13:20+1:0513:25+1:135m--1-123.152384mSCRPurna, Maharashtra
58MQLMirkhal  13:39+1:2313:40+1:261m--1-111.036405mSCRPurna, Maharashtra
59PIZPingli (1)  13:49+1:2613:50+1:271m11-105.751399mSCRParbhani, Maharashtra
60PBNParbhani Junction (3)X  14:03+1:0114:05+1:042m11-94.773414mSCRParbhani 431401, Maharashtra
61PGPergaon  14:15+1:3414:16+1:361m--1-82.673441mSCRParbhani, Maharashtra
62DAVDevalgaon Avchar  14:21+1:4114:22+1:421m--1-76.579425mSCRParbhani, Maharashtra
63MVOManwath Road (2)  14:29+1:4414:30+1:451m--1-67.354421mSCRParbhani, Maharashtra
64DGPPDhengli PimpalgaonX  14:36+1:5314:37+1:541m--1-61.926407mSCRSatuna, Maharashtra
65SELUSelu (2)  14:59+1:3215:00+1:341m--1-52.368436mSCRParbhani, Maharashtra
66SCOSatunaX  15:09+1:4315:10+1:441m--1-42.153440mSCRSatona, Maharashtra
67UPRUsmanpur  15:19+1:4415:20+1:461m--1-34.263444mSCRUsmanpur, Maharashtra
68PTUPartur (2)  15:29+1:4315:30+1:471m--1-24.748465mSCRJalna, Maharashtra
69PDGParadgaon  15:39-15:40-1m--1-17.542454mSCRUsmanpur, Maharashtra
70RNERanjani  15:49+1:4615:50+1:471m--1-11.275469mSCRJalna, Maharashtra
71KODI»Kodi»X  15:59+1:5016:00+1:511m--10.066473mSCRRanjani, Maharashtra
72SVDSarwariX  16:09+1:5316:10+1:531m--110.08493mSCRRanjani, Maharashtra
73JJalna (3)  17:23+4217:25+432m--119.781502mSCRJalna, Maharashtra
74BDUBadnapur  17:39+5817:40+1:021m--138.771523mSCRJalna, Maharashtra
75KMVKarmad  17:53+1:0817:54+1:101m--154.124567mSCRAurangabad, Maharashtra
76CTHChikalthanX  18:04+1:1418:05+1:151m--158.1-582mSCRAurangabad, Maharashtra
77MKDDMukundwadi Halt (1)X  18:09-18:10-1m1172.411580mSCRAurangabad, Maharashtra
78AWBAurangabad (5)X  19:05+2619:10+295m--182.383561mSCRAurangabad 431001, Maharashtra
79DLBDaulatabad (1)  19:19+4419:20+451m1194.831575mSCRDaulatabad, Maharashtra
80POZPotul (1)  19:38+3719:39+371m11104.1141554mSCRLasur, Maharashtra
81LSRLasur (2)X  19:44+4319:45+451m--1115.9102536mSCRAurangabad, Maharashtra
82KAJGKaranjgaonX  19:51+5119:52+531m--1126.131523mSCRLasur, Maharashtra
83PSDParsoda  20:01+5320:02+591m--1130.762530mSCRRotegaon, Maharashtra
84RGORotegaonX  20:14+5820:15+591m--1143.0145547mSCRAurangabad, Maharashtra
85TRTarur  20:24+1:0420:25+1:061m--1164.811586mSCRTaru, Maharashtra
86NSLNagarsol (2)X  20:59+4221:00+501m--1171.011589mSCRDist. Nashik, Maharashtra
87ANKAnkai (3)X  21:54+3221:55+1:191m31181.011620mSCRDist. Nashik, Maharashtra
88MMR•Manmad Junction (6)•  23:05+1:16-61193.9-580mCRManmad 423104, Maharashtra
Scroll to Top
Scroll to Bottom